sensor_id;sensor_type;location;lat;lon;timestamp;temperature;humidity
57026;DHT22;43961;52.940;6.834;2022-08-19T00:01:53;15.80;99.90
57026;DHT22;43961;52.940;6.834;2022-08-19T00:04:23;15.70;99.90
57026;DHT22;43961;52.940;6.834;2022-08-19T00:06:50;15.70;99.90
57026;DHT22;43961;52.940;6.834;2022-08-19T00:09:18;15.70;99.90
57026;DHT22;43961;52.940;6.834;2022-08-19T00:11:44;15.60;99.90
57026;DHT22;43961;52.940;6.834;2022-08-19T00:14:12;15.60;99.90
57026;DHT22;43961;52.940;6.834;2022-08-19T00:16:39;15.50;99.90
57026;DHT22;43961;52.940;6.834;2022-08-19T00:19:07;15.40;99.90
57026;DHT22;43961;52.940;6.834;2022-08-19T00:21:33;15.40;99.90
57026;DHT22;43961;52.940;6.834;2022-08-19T00:24:03;15.30;99.90
57026;DHT22;43961;52.940;6.834;2022-08-19T00:26:30;15.30;99.90
57026;DHT22;43961;52.940;6.834;2022-08-19T00:28:56;15.30;99.90
57026;DHT22;43961;52.940;6.834;2022-08-19T00:31:22;15.30;99.90
57026;DHT22;43961;52.940;6.834;2022-08-19T00:33:48;15.20;99.90
57026;DHT22;43961;52.940;6.834;2022-08-19T00:36:16;15.20;99.90
57026;DHT22;43961;52.940;6.834;2022-08-19T00:38:42;15.20;99.90
57026;DHT22;43961;52.940;6.834;2022-08-19T00:41:19;15.20;99.90
57026;DHT22;43961;52.940;6.834;2022-08-19T00:44:10;15.20;99.90
57026;DHT22;43961;52.940;6.834;2022-08-19T00:46:38;15.20;99.90
57026;DHT22;43961;52.940;6.834;2022-08-19T00:49:31;15.10;99.90
57026;DHT22;43961;52.940;6.834;2022-08-19T00:52:05;15.00;99.90
57026;DHT22;43961;52.940;6.834;2022-08-19T00:54:32;14.80;99.90
57026;DHT22;43961;52.940;6.834;2022-08-19T00:56:59;14.80;99.90
57026;DHT22;43961;52.940;6.834;2022-08-19T00:59:28;14.70;99.90
57026;DHT22;43961;52.940;6.834;2022-08-19T01:01:53;14.60;99.90
57026;DHT22;43961;52.940;6.834;2022-08-19T01:04:19;14.50;99.90
57026;DHT22;43961;52.940;6.834;2022-08-19T01:06:45;14.50;99.90
57026;DHT22;43961;52.940;6.834;2022-08-19T01:09:11;14.50;99.90
57026;DHT22;43961;52.940;6.834;2022-08-19T01:11:43;14.60;99.90
57026;DHT22;43961;52.940;6.834;2022-08-19T01:14:10;14.60;99.90
57026;DHT22;43961;52.940;6.834;2022-08-19T01:16:39;14.60;99.90
57026;DHT22;43961;52.940;6.834;2022-08-19T01:19:18;14.60;99.90
57026;DHT22;43961;52.940;6.834;2022-08-19T01:21:52;14.60;99.90
57026;DHT22;43961;52.940;6.834;2022-08-19T01:24:19;14.60;99.90
57026;DHT22;43961;52.940;6.834;2022-08-19T01:26:46;14.50;99.90
57026;DHT22;43961;52.940;6.834;2022-08-19T01:29:12;14.50;99.90
57026;DHT22;43961;52.940;6.834;2022-08-19T01:31:39;14.50;99.90
57026;DHT22;43961;52.940;6.834;2022-08-19T01:34:05;14.60;99.90
57026;DHT22;43961;52.940;6.834;2022-08-19T01:36:34;14.50;99.90
57026;DHT22;43961;52.940;6.834;2022-08-19T01:39:02;14.50;99.90
57026;DHT22;43961;52.940;6.834;2022-08-19T01:41:29;14.50;99.90
57026;DHT22;43961;52.940;6.834;2022-08-19T01:43:54;14.50;99.90
57026;DHT22;43961;52.940;6.834;2022-08-19T01:46:21;14.40;99.90
57026;DHT22;43961;52.940;6.834;2022-08-19T01:48:47;14.40;99.90
57026;DHT22;43961;52.940;6.834;2022-08-19T01:51:13;14.40;99.90
57026;DHT22;43961;52.940;6.834;2022-08-19T01:53:40;14.40;99.90
57026;DHT22;43961;52.940;6.834;2022-08-19T01:56:06;14.40;99.90
57026;DHT22;43961;52.940;6.834;2022-08-19T01:58:36;14.30;99.90
57026;DHT22;43961;52.940;6.834;2022-08-19T02:01:04;14.30;99.90
57026;DHT22;43961;52.940;6.834;2022-08-19T02:03:30;14.30;99.90
57026;DHT22;43961;52.940;6.834;2022-08-19T02:05:58;14.30;99.90
57026;DHT22;43961;52.940;6.834;2022-08-19T02:08:26;14.20;99.90
57026;DHT22;43961;52.940;6.834;2022-08-19T02:10:52;14.20;99.90
57026;DHT22;43961;52.940;6.834;2022-08-19T02:13:18;14.10;99.90
57026;DHT22;43961;52.940;6.834;2022-08-19T02:15:44;14.00;99.90
57026;DHT22;43961;52.940;6.834;2022-08-19T02:18:09;13.90;99.90
57026;DHT22;43961;52.940;6.834;2022-08-19T02:20:37;13.80;99.90
57026;DHT22;43961;52.940;6.834;2022-08-19T02:23:05;13.80;99.90
57026;DHT22;43961;52.940;6.834;2022-08-19T02:25:31;13.70;99.90
57026;DHT22;43961;52.940;6.834;2022-08-19T02:27:56;13.80;99.90
57026;DHT22;43961;52.940;6.834;2022-08-19T02:30:22;13.80;99.90
57026;DHT22;43961;52.940;6.834;2022-08-19T02:32:50;13.80;99.90
57026;DHT22;43961;52.940;6.834;2022-08-19T02:35:17;13.80;99.90
57026;DHT22;43961;52.940;6.834;2022-08-19T02:37:43;13.80;99.90
57026;DHT22;43961;52.940;6.834;2022-08-19T02:40:29;13.90;99.90
57026;DHT22;43961;52.940;6.834;2022-08-19T02:42:55;13.80;99.90
57026;DHT22;43961;52.940;6.834;2022-08-19T02:45:20;13.90;99.90
57026;DHT22;43961;52.940;6.834;2022-08-19T02:47:46;13.90;99.90
57026;DHT22;43961;52.940;6.834;2022-08-19T02:50:12;13.80;99.90
57026;DHT22;43961;52.940;6.834;2022-08-19T02:52:39;13.80;99.90
57026;DHT22;43961;52.940;6.834;2022-08-19T02:55:05;13.80;99.90
57026;DHT22;43961;52.940;6.834;2022-08-19T02:57:31;13.80;99.90
57026;DHT22;43961;52.940;6.834;2022-08-19T02:59:57;13.80;99.90
57026;DHT22;43961;52.940;6.834;2022-08-19T03:02:23;13.80;99.90
57026;DHT22;43961;52.940;6.834;2022-08-19T03:04:49;13.70;99.90
57026;DHT22;43961;52.940;6.834;2022-08-19T03:07:16;13.70;99.90
57026;DHT22;43961;52.940;6.834;2022-08-19T03:09:42;13.70;99.90
57026;DHT22;43961;52.940;6.834;2022-08-19T03:12:09;13.70;99.90
57026;DHT22;43961;52.940;6.834;2022-08-19T03:14:35;13.70;99.90
57026;DHT22;43961;52.940;6.834;2022-08-19T03:17:01;13.60;99.90
57026;DHT22;43961;52.940;6.834;2022-08-19T03:19:28;13.60;99.90
57026;DHT22;43961;52.940;6.834;2022-08-19T03:21:54;13.60;99.90
57026;DHT22;43961;52.940;6.834;2022-08-19T03:24:21;13.60;99.90
57026;DHT22;43961;52.940;6.834;2022-08-19T03:26:49;13.60;99.90
57026;DHT22;43961;52.940;6.834;2022-08-19T03:29:16;13.60;99.90
57026;DHT22;43961;52.940;6.834;2022-08-19T03:31:43;13.60;99.90
57026;DHT22;43961;52.940;6.834;2022-08-19T03:34:14;13.60;99.90
57026;DHT22;43961;52.940;6.834;2022-08-19T03:36:40;13.60;99.90
57026;DHT22;43961;52.940;6.834;2022-08-19T03:39:06;13.60;99.90
57026;DHT22;43961;52.940;6.834;2022-08-19T03:41:37;13.60;99.90
57026;DHT22;43961;52.940;6.834;2022-08-19T03:44:03;13.60;99.90
57026;DHT22;43961;52.940;6.834;2022-08-19T03:46:32;13.50;99.90
57026;DHT22;43961;52.940;6.834;2022-08-19T03:49:00;13.50;99.90
57026;DHT22;43961;52.940;6.834;2022-08-19T03:51:28;13.50;99.90
57026;DHT22;43961;52.940;6.834;2022-08-19T03:53:57;13.50;99.90
57026;DHT22;43961;52.940;6.834;2022-08-19T03:56:24;13.50;99.90
57026;DHT22;43961;52.940;6.834;2022-08-19T03:58:57;13.50;99.90
57026;DHT22;43961;52.940;6.834;2022-08-19T04:01:25;13.50;99.90
57026;DHT22;43961;52.940;6.834;2022-08-19T04:03:58;13.40;99.90
57026;DHT22;43961;52.940;6.834;2022-08-19T04:06:31;13.40;99.90
57026;DHT22;43961;52.940;6.834;2022-08-19T04:08:58;13.40;99.90
57026;DHT22;43961;52.940;6.834;2022-08-19T04:11:28;13.40;99.90
57026;DHT22;43961;52.940;6.834;2022-08-19T04:13:55;13.40;99.90
57026;DHT22;43961;52.940;6.834;2022-08-19T04:16:23;13.40;99.90
57026;DHT22;43961;52.940;6.834;2022-08-19T04:18:49;13.40;99.90
57026;DHT22;43961;52.940;6.834;2022-08-19T04:21:20;13.40;99.90
57026;DHT22;43961;52.940;6.834;2022-08-19T04:23:47;13.40;99.90
57026;DHT22;43961;52.940;6.834;2022-08-19T04:26:15;13.40;99.90
57026;DHT22;43961;52.940;6.834;2022-08-19T04:28:42;13.40;99.90
57026;DHT22;43961;52.940;6.834;2022-08-19T04:31:16;13.40;99.90
57026;DHT22;43961;52.940;6.834;2022-08-19T04:33:42;13.30;99.90
57026;DHT22;43961;52.940;6.834;2022-08-19T04:36:14;13.30;99.90
57026;DHT22;43961;52.940;6.834;2022-08-19T04:38:41;13.30;99.90
57026;DHT22;43961;52.940;6.834;2022-08-19T04:41:07;13.30;99.90
57026;DHT22;43961;52.940;6.834;2022-08-19T04:43:51;13.30;99.90
57026;DHT22;43961;52.940;6.834;2022-08-19T04:46:17;13.30;99.90
57026;DHT22;43961;52.940;6.834;2022-08-19T04:48:43;13.30;99.90
57026;DHT22;43961;52.940;6.834;2022-08-19T04:51:11;13.30;99.90
57026;DHT22;43961;52.940;6.834;2022-08-19T04:53:40;13.40;99.90
57026;DHT22;43961;52.940;6.834;2022-08-19T04:56:11;13.30;99.90
57026;DHT22;43961;52.940;6.834;2022-08-19T04:58:38;13.40;99.90
57026;DHT22;43961;52.940;6.834;2022-08-19T05:01:05;13.40;99.90
57026;DHT22;43961;52.940;6.834;2022-08-19T05:03:31;13.30;99.90
57026;DHT22;43961;52.940;6.834;2022-08-19T05:06:04;13.30;99.90
57026;DHT22;43961;52.940;6.834;2022-08-19T05:08:30;13.30;99.90
57026;DHT22;43961;52.940;6.834;2022-08-19T05:10:56;13.40;99.90
57026;DHT22;43961;52.940;6.834;2022-08-19T05:13:22;13.40;99.90
57026;DHT22;43961;52.940;6.834;2022-08-19T05:15:57;13.40;99.90
57026;DHT22;43961;52.940;6.834;2022-08-19T05:18:23;13.40;99.90
57026;DHT22;43961;52.940;6.834;2022-08-19T05:21:13;13.40;99.90
57026;DHT22;43961;52.940;6.834;2022-08-19T05:23:57;13.50;99.90
57026;DHT22;43961;52.940;6.834;2022-08-19T05:26:24;13.60;99.90
57026;DHT22;43961;52.940;6.834;2022-08-19T05:28:52;13.70;99.90
57026;DHT22;43961;52.940;6.834;2022-08-19T05:31:19;13.70;99.90
57026;DHT22;43961;52.940;6.834;2022-08-19T05:33:46;13.80;99.90
57026;DHT22;43961;52.940;6.834;2022-08-19T05:36:12;13.90;99.90
57026;DHT22;43961;52.940;6.834;2022-08-19T05:38:38;14.00;99.90
57026;DHT22;43961;52.940;6.834;2022-08-19T05:41:12;14.10;99.90
57026;DHT22;43961;52.940;6.834;2022-08-19T05:43:38;14.20;99.90
57026;DHT22;43961;52.940;6.834;2022-08-19T05:46:06;14.30;99.90
57026;DHT22;43961;52.940;6.834;2022-08-19T05:48:36;14.40;99.90
57026;DHT22;43961;52.940;6.834;2022-08-19T05:51:05;14.50;99.90
57026;DHT22;43961;52.940;6.834;2022-08-19T05:53:34;14.60;99.90
57026;DHT22;43961;52.940;6.834;2022-08-19T05:56:12;14.60;99.90
57026;DHT22;43961;52.940;6.834;2022-08-19T05:58:39;14.70;99.90
57026;DHT22;43961;52.940;6.834;2022-08-19T06:01:10;14.80;99.90
57026;DHT22;43961;52.940;6.834;2022-08-19T06:03:37;14.80;99.90
57026;DHT22;43961;52.940;6.834;2022-08-19T06:06:04;14.90;99.90
57026;DHT22;43961;52.940;6.834;2022-08-19T06:08:29;15.00;99.90
57026;DHT22;43961;52.940;6.834;2022-08-19T06:10:55;15.10;99.90
57026;DHT22;43961;52.940;6.834;2022-08-19T06:13:22;15.10;99.90
57026;DHT22;43961;52.940;6.834;2022-08-19T06:15:49;15.20;99.90
57026;DHT22;43961;52.940;6.834;2022-08-19T06:18:15;15.30;99.90
57026;DHT22;43961;52.940;6.834;2022-08-19T06:20:41;15.50;99.90
57026;DHT22;43961;52.940;6.834;2022-08-19T06:23:08;15.60;99.90
57026;DHT22;43961;52.940;6.834;2022-08-19T06:25:34;15.60;99.90
57026;DHT22;43961;52.940;6.834;2022-08-19T06:28:00;15.70;99.90
57026;DHT22;43961;52.940;6.834;2022-08-19T06:30:26;15.90;99.90
57026;DHT22;43961;52.940;6.834;2022-08-19T06:32:52;15.90;99.90
57026;DHT22;43961;52.940;6.834;2022-08-19T06:35:19;16.10;99.90
57026;DHT22;43961;52.940;6.834;2022-08-19T06:37:45;16.10;99.90
57026;DHT22;43961;52.940;6.834;2022-08-19T06:40:11;16.20;99.90
57026;DHT22;43961;52.940;6.834;2022-08-19T06:42:38;16.30;99.90
57026;DHT22;43961;52.940;6.834;2022-08-19T06:45:05;16.40;99.90
57026;DHT22;43961;52.940;6.834;2022-08-19T06:47:31;16.40;99.90
57026;DHT22;43961;52.940;6.834;2022-08-19T06:50:00;16.50;99.90
57026;DHT22;43961;52.940;6.834;2022-08-19T06:52:29;16.60;99.90
57026;DHT22;43961;52.940;6.834;2022-08-19T06:54:55;16.70;99.90
57026;DHT22;43961;52.940;6.834;2022-08-19T06:57:24;16.90;99.90
57026;DHT22;43961;52.940;6.834;2022-08-19T06:59:50;17.10;99.90
57026;DHT22;43961;52.940;6.834;2022-08-19T07:02:16;17.30;99.90
57026;DHT22;43961;52.940;6.834;2022-08-19T07:04:42;17.50;99.90
57026;DHT22;43961;52.940;6.834;2022-08-19T07:07:13;17.70;99.90
57026;DHT22;43961;52.940;6.834;2022-08-19T07:09:42;18.00;99.90
57026;DHT22;43961;52.940;6.834;2022-08-19T07:12:10;18.40;99.90
57026;DHT22;43961;52.940;6.834;2022-08-19T07:14:38;18.70;99.90
57026;DHT22;43961;52.940;6.834;2022-08-19T07:17:10;19.20;99.90
57026;DHT22;43961;52.940;6.834;2022-08-19T07:19:37;19.50;99.90
57026;DHT22;43961;52.940;6.834;2022-08-19T07:22:05;20.00;99.90
57026;DHT22;43961;52.940;6.834;2022-08-19T07:24:32;20.30;99.90
57026;DHT22;43961;52.940;6.834;2022-08-19T07:27:00;20.70;99.90
57026;DHT22;43961;52.940;6.834;2022-08-19T07:29:28;21.10;99.90
57026;DHT22;43961;52.940;6.834;2022-08-19T07:31:55;21.40;99.90
57026;DHT22;43961;52.940;6.834;2022-08-19T07:34:23;21.70;99.90
57026;DHT22;43961;52.940;6.834;2022-08-19T07:36:49;22.00;99.90
57026;DHT22;43961;52.940;6.834;2022-08-19T07:39:21;22.30;99.90
57026;DHT22;43961;52.940;6.834;2022-08-19T07:41:48;22.50;99.90
57026;DHT22;43961;52.940;6.834;2022-08-19T07:44:14;22.80;99.90
57026;DHT22;43961;52.940;6.834;2022-08-19T07:46:45;23.00;99.90
57026;DHT22;43961;52.940;6.834;2022-08-19T07:49:12;23.20;99.90
57026;DHT22;43961;52.940;6.834;2022-08-19T07:51:44;23.40;99.90
57026;DHT22;43961;52.940;6.834;2022-08-19T07:54:10;23.50;99.90
57026;DHT22;43961;52.940;6.834;2022-08-19T07:56:37;23.80;99.90
57026;DHT22;43961;52.940;6.834;2022-08-19T07:59:03;24.00;99.90
57026;DHT22;43961;52.940;6.834;2022-08-19T08:01:28;24.20;99.90
57026;DHT22;43961;52.940;6.834;2022-08-19T08:03:57;24.30;99.90
57026;DHT22;43961;52.940;6.834;2022-08-19T08:06:41;24.60;99.90
57026;DHT22;43961;52.940;6.834;2022-08-19T08:09:31;24.80;99.90
57026;DHT22;43961;52.940;6.834;2022-08-19T08:14:35;24.90;99.90
57026;DHT22;43961;52.940;6.834;2022-08-19T08:17:04;25.10;99.90
57026;DHT22;43961;52.940;6.834;2022-08-19T08:19:30;25.30;99.90
57026;DHT22;43961;52.940;6.834;2022-08-19T08:21:57;25.50;99.90
57026;DHT22;43961;52.940;6.834;2022-08-19T08:24:25;25.50;99.90
57026;DHT22;43961;52.940;6.834;2022-08-19T08:26:51;25.70;99.90
57026;DHT22;43961;52.940;6.834;2022-08-19T08:29:16;25.60;99.90
57026;DHT22;43961;52.940;6.834;2022-08-19T08:31:44;26.00;99.90
57026;DHT22;43961;52.940;6.834;2022-08-19T08:34:11;26.20;99.90
57026;DHT22;43961;52.940;6.834;2022-08-19T08:36:37;26.30;99.90
57026;DHT22;43961;52.940;6.834;2022-08-19T08:39:17;26.30;99.90
57026;DHT22;43961;52.940;6.834;2022-08-19T08:42:22;26.40;99.90
57026;DHT22;43961;52.940;6.834;2022-08-19T08:45:03;26.70;99.90
57026;DHT22;43961;52.940;6.834;2022-08-19T08:47:35;26.70;99.90
57026;DHT22;43961;52.940;6.834;2022-08-19T08:50:12;26.80;99.90
57026;DHT22;43961;52.940;6.834;2022-08-19T08:52:44;26.90;99.90
57026;DHT22;43961;52.940;6.834;2022-08-19T08:55:17;27.10;99.90
57026;DHT22;43961;52.940;6.834;2022-08-19T09:00:25;27.40;99.90
57026;DHT22;43961;52.940;6.834;2022-08-19T09:02:55;27.50;99.90
57026;DHT22;43961;52.940;6.834;2022-08-19T09:05:24;27.70;99.90
57026;DHT22;43961;52.940;6.834;2022-08-19T09:08:07;27.70;99.90
57026;DHT22;43961;52.940;6.834;2022-08-19T09:10:52;27.90;99.90
57026;DHT22;43961;52.940;6.834;2022-08-19T09:16:11;27.70;99.90
57026;DHT22;43961;52.940;6.834;2022-08-19T09:21:07;27.70;99.90
57026;DHT22;43961;52.940;6.834;2022-08-19T09:23:35;27.80;99.90
57026;DHT22;43961;52.940;6.834;2022-08-19T09:26:01;28.00;99.90
57026;DHT22;43961;52.940;6.834;2022-08-19T09:28:27;28.00;99.90
57026;DHT22;43961;52.940;6.834;2022-08-19T09:30:54;28.10;99.90
57026;DHT22;43961;52.940;6.834;2022-08-19T09:33:20;28.20;99.90
57026;DHT22;43961;52.940;6.834;2022-08-19T09:35:45;28.20;99.90
57026;DHT22;43961;52.940;6.834;2022-08-19T09:38:11;28.20;99.90
57026;DHT22;43961;52.940;6.834;2022-08-19T09:40:37;28.20;99.90
57026;DHT22;43961;52.940;6.834;2022-08-19T09:43:04;28.20;99.90
57026;DHT22;43961;52.940;6.834;2022-08-19T09:45:30;28.30;99.90
57026;DHT22;43961;52.940;6.834;2022-08-19T09:47:56;28.50;99.90
57026;DHT22;43961;52.940;6.834;2022-08-19T09:50:22;28.70;98.30
57026;DHT22;43961;52.940;6.834;2022-08-19T09:52:49;28.60;99.50
57026;DHT22;43961;52.940;6.834;2022-08-19T09:55:15;28.60;96.60
57026;DHT22;43961;52.940;6.834;2022-08-19T09:57:41;28.70;97.70
57026;DHT22;43961;52.940;6.834;2022-08-19T10:00:08;28.70;94.50
57026;DHT22;43961;52.940;6.834;2022-08-19T10:02:34;28.70;93.20
57026;DHT22;43961;52.940;6.834;2022-08-19T10:05:00;28.90;96.00
57026;DHT22;43961;52.940;6.834;2022-08-19T10:07:45;28.70;92.60
57026;DHT22;43961;52.940;6.834;2022-08-19T10:10:10;28.90;91.10
57026;DHT22;43961;52.940;6.834;2022-08-19T10:12:36;29.00;87.80
57026;DHT22;43961;52.940;6.834;2022-08-19T10:15:04;29.00;92.00
57026;DHT22;43961;52.940;6.834;2022-08-19T10:17:31;29.00;91.20
57026;DHT22;43961;52.940;6.834;2022-08-19T10:19:59;29.10;86.80
57026;DHT22;43961;52.940;6.834;2022-08-19T10:22:24;29.10;80.10
57026;DHT22;43961;52.940;6.834;2022-08-19T10:24:50;29.00;86.40
57026;DHT22;43961;52.940;6.834;2022-08-19T10:27:17;29.20;86.90
57026;DHT22;43961;52.940;6.834;2022-08-19T10:29:43;29.10;86.50
57026;DHT22;43961;52.940;6.834;2022-08-19T10:32:09;29.20;92.00
57026;DHT22;43961;52.940;6.834;2022-08-19T10:34:37;29.20;83.10
57026;DHT22;43961;52.940;6.834;2022-08-19T10:37:04;29.10;82.00
57026;DHT22;43961;52.940;6.834;2022-08-19T10:39:33;29.10;85.60
57026;DHT22;43961;52.940;6.834;2022-08-19T10:41:59;29.40;84.60
57026;DHT22;43961;52.940;6.834;2022-08-19T10:44:26;29.20;77.90
57026;DHT22;43961;52.940;6.834;2022-08-19T10:46:55;29.40;76.10
57026;DHT22;43961;52.940;6.834;2022-08-19T10:49:21;29.40;70.40
57026;DHT22;43961;52.940;6.834;2022-08-19T10:51:49;29.40;75.90
57026;DHT22;43961;52.940;6.834;2022-08-19T10:54:33;29.50;75.20
57026;DHT22;43961;52.940;6.834;2022-08-19T10:57:18;29.50;74.90
57026;DHT22;43961;52.940;6.834;2022-08-19T10:59:44;29.40;74.90
57026;DHT22;43961;52.940;6.834;2022-08-19T11:02:11;29.50;72.00
57026;DHT22;43961;52.940;6.834;2022-08-19T11:04:39;29.50;71.90
57026;DHT22;43961;52.940;6.834;2022-08-19T11:07:04;29.50;71.90
57026;DHT22;43961;52.940;6.834;2022-08-19T11:09:31;29.40;66.80
57026;DHT22;43961;52.940;6.834;2022-08-19T11:11:57;29.20;71.50
57026;DHT22;43961;52.940;6.834;2022-08-19T11:14:24;29.20;70.90
57026;DHT22;43961;52.940;6.834;2022-08-19T11:16:51;29.20;72.00
57026;DHT22;43961;52.940;6.834;2022-08-19T11:19:21;29.30;70.50
57026;DHT22;43961;52.940;6.834;2022-08-19T11:21:49;29.10;72.90
57026;DHT22;43961;52.940;6.834;2022-08-19T11:24:21;29.20;75.50
57026;DHT22;43961;52.940;6.834;2022-08-19T11:26:48;29.10;73.00
57026;DHT22;43961;52.940;6.834;2022-08-19T11:29:15;29.30;76.20
57026;DHT22;43961;52.940;6.834;2022-08-19T11:31:43;29.30;73.70
57026;DHT22;43961;52.940;6.834;2022-08-19T11:34:12;29.60;73.20
57026;DHT22;43961;52.940;6.834;2022-08-19T11:36:41;29.60;69.60
57026;DHT22;43961;52.940;6.834;2022-08-19T11:39:09;29.60;66.10
57026;DHT22;43961;52.940;6.834;2022-08-19T11:41:35;29.50;69.00
57026;DHT22;43961;52.940;6.834;2022-08-19T11:44:01;29.50;66.80
57026;DHT22;43961;52.940;6.834;2022-08-19T11:46:28;29.50;66.20
57026;DHT22;43961;52.940;6.834;2022-08-19T11:48:55;29.70;66.50
57026;DHT22;43961;52.940;6.834;2022-08-19T11:51:23;29.80;65.70
57026;DHT22;43961;52.940;6.834;2022-08-19T11:53:51;29.90;63.20
57026;DHT22;43961;52.940;6.834;2022-08-19T11:56:18;29.60;63.50
57026;DHT22;43961;52.940;6.834;2022-08-19T11:58:44;29.50;63.90
57026;DHT22;43961;52.940;6.834;2022-08-19T12:01:15;29.20;64.50
57026;DHT22;43961;52.940;6.834;2022-08-19T12:03:42;29.50;64.30
57026;DHT22;43961;52.940;6.834;2022-08-19T12:06:12;29.60;63.50
57026;DHT22;43961;52.940;6.834;2022-08-19T12:08:40;29.90;63.70
57026;DHT22;43961;52.940;6.834;2022-08-19T12:11:06;30.00;62.30
57026;DHT22;43961;52.940;6.834;2022-08-19T12:13:36;30.00;61.60
57026;DHT22;43961;52.940;6.834;2022-08-19T12:16:23;30.00;61.10
57026;DHT22;43961;52.940;6.834;2022-08-19T12:18:49;29.90;60.10
57026;DHT22;43961;52.940;6.834;2022-08-19T12:21:17;29.70;60.30
57026;DHT22;43961;52.940;6.834;2022-08-19T12:23:43;29.80;59.90
57026;DHT22;43961;52.940;6.834;2022-08-19T12:26:11;29.80;59.40
57026;DHT22;43961;52.940;6.834;2022-08-19T12:28:37;29.90;59.80
57026;DHT22;43961;52.940;6.834;2022-08-19T12:31:04;30.00;58.90
57026;DHT22;43961;52.940;6.834;2022-08-19T12:33:30;30.00;58.50
57026;DHT22;43961;52.940;6.834;2022-08-19T12:36:02;29.90;60.00
57026;DHT22;43961;52.940;6.834;2022-08-19T12:38:29;29.90;60.30
57026;DHT22;43961;52.940;6.834;2022-08-19T12:40:55;30.00;61.00
57026;DHT22;43961;52.940;6.834;2022-08-19T12:43:20;29.90;60.50
57026;DHT22;43961;52.940;6.834;2022-08-19T12:45:47;29.80;59.70
57026;DHT22;43961;52.940;6.834;2022-08-19T12:48:14;29.60;60.00
57026;DHT22;43961;52.940;6.834;2022-08-19T12:50:41;29.70;60.30
57026;DHT22;43961;52.940;6.834;2022-08-19T12:53:06;29.70;59.90
57026;DHT22;43961;52.940;6.834;2022-08-19T12:55:32;29.80;62.50
57026;DHT22;43961;52.940;6.834;2022-08-19T12:57:58;29.90;61.90
57026;DHT22;43961;52.940;6.834;2022-08-19T13:00:23;29.90;61.70
57026;DHT22;43961;52.940;6.834;2022-08-19T13:02:51;30.00;61.90
57026;DHT22;43961;52.940;6.834;2022-08-19T13:05:23;29.80;61.20
57026;DHT22;43961;52.940;6.834;2022-08-19T13:07:50;29.80;62.30
57026;DHT22;43961;52.940;6.834;2022-08-19T13:10:18;29.70;61.00
57026;DHT22;43961;52.940;6.834;2022-08-19T13:12:47;29.50;59.20
57026;DHT22;43961;52.940;6.834;2022-08-19T13:15:14;29.40;59.30
57026;DHT22;43961;52.940;6.834;2022-08-19T13:17:40;29.30;58.70
57026;DHT22;43961;52.940;6.834;2022-08-19T13:20:08;29.20;58.50
57026;DHT22;43961;52.940;6.834;2022-08-19T13:22:35;29.20;57.80
57026;DHT22;43961;52.940;6.834;2022-08-19T13:25:02;29.20;57.30
57026;DHT22;43961;52.940;6.834;2022-08-19T13:27:29;29.20;55.90
57026;DHT22;43961;52.940;6.834;2022-08-19T13:29:54;29.10;56.00
57026;DHT22;43961;52.940;6.834;2022-08-19T13:32:38;28.90;56.00
57026;DHT22;43961;52.940;6.834;2022-08-19T13:35:22;29.10;56.50
57026;DHT22;43961;52.940;6.834;2022-08-19T13:37:48;29.10;57.10
57026;DHT22;43961;52.940;6.834;2022-08-19T13:40:19;29.20;56.60
57026;DHT22;43961;52.940;6.834;2022-08-19T13:42:49;29.10;55.30
57026;DHT22;43961;52.940;6.834;2022-08-19T13:45:19;29.20;54.30
57026;DHT22;43961;52.940;6.834;2022-08-19T13:47:49;29.20;53.60
57026;DHT22;43961;52.940;6.834;2022-08-19T13:50:18;29.20;53.80
57026;DHT22;43961;52.940;6.834;2022-08-19T13:52:45;29.20;55.00
57026;DHT22;43961;52.940;6.834;2022-08-19T13:55:11;29.20;54.60
57026;DHT22;43961;52.940;6.834;2022-08-19T13:57:37;29.10;54.50
57026;DHT22;43961;52.940;6.834;2022-08-19T14:00:15;29.10;54.60
57026;DHT22;43961;52.940;6.834;2022-08-19T14:02:43;29.20;54.60
57026;DHT22;43961;52.940;6.834;2022-08-19T14:05:12;29.10;55.70
57026;DHT22;43961;52.940;6.834;2022-08-19T14:07:37;29.00;56.30
57026;DHT22;43961;52.940;6.834;2022-08-19T14:10:05;28.90;56.80
57026;DHT22;43961;52.940;6.834;2022-08-19T14:12:32;28.90;57.40
57026;DHT22;43961;52.940;6.834;2022-08-19T14:14:58;28.70;57.30
57026;DHT22;43961;52.940;6.834;2022-08-19T14:17:24;28.70;57.80
57026;DHT22;43961;52.940;6.834;2022-08-19T14:19:56;28.70;58.20
57026;DHT22;43961;52.940;6.834;2022-08-19T14:22:22;28.70;58.20
57026;DHT22;43961;52.940;6.834;2022-08-19T14:24:48;28.80;58.00
57026;DHT22;43961;52.940;6.834;2022-08-19T14:27:15;28.80;57.80
57026;DHT22;43961;52.940;6.834;2022-08-19T14:29:41;28.70;58.30
57026;DHT22;43961;52.940;6.834;2022-08-19T14:32:07;28.80;58.70
57026;DHT22;43961;52.940;6.834;2022-08-19T14:34:33;28.70;59.10
57026;DHT22;43961;52.940;6.834;2022-08-19T14:36:59;28.80;60.30
57026;DHT22;43961;52.940;6.834;2022-08-19T14:39:25;28.60;66.80
57026;DHT22;43961;52.940;6.834;2022-08-19T14:41:51;28.40;75.10
57026;DHT22;43961;52.940;6.834;2022-08-19T14:44:16;28.40;84.00
57026;DHT22;43961;52.940;6.834;2022-08-19T14:46:42;28.10;86.60
57026;DHT22;43961;52.940;6.834;2022-08-19T14:49:09;28.10;90.80
57026;DHT22;43961;52.940;6.834;2022-08-19T14:51:35;27.90;93.70
57026;DHT22;43961;52.940;6.834;2022-08-19T14:54:00;27.80;95.70
57026;DHT22;43961;52.940;6.834;2022-08-19T14:56:28;27.60;96.90
57026;DHT22;43961;52.940;6.834;2022-08-19T14:58:55;27.50;97.90
57026;DHT22;43961;52.940;6.834;2022-08-19T15:01:22;27.40;98.50
57026;DHT22;43961;52.940;6.834;2022-08-19T15:03:49;27.30;99.50
57026;DHT22;43961;52.940;6.834;2022-08-19T15:06:15;27.40;99.90
57026;DHT22;43961;52.940;6.834;2022-08-19T15:08:41;27.30;99.90
57026;DHT22;43961;52.940;6.834;2022-08-19T15:11:14;27.40;99.90
57026;DHT22;43961;52.940;6.834;2022-08-19T15:13:41;27.30;99.90
57026;DHT22;43961;52.940;6.834;2022-08-19T15:16:08;27.20;99.90
57026;DHT22;43961;52.940;6.834;2022-08-19T15:18:34;27.10;99.90
57026;DHT22;43961;52.940;6.834;2022-08-19T15:21:01;27.00;99.90
57026;DHT22;43961;52.940;6.834;2022-08-19T15:23:27;27.00;99.90
57026;DHT22;43961;52.940;6.834;2022-08-19T15:25:53;26.90;99.90
57026;DHT22;43961;52.940;6.834;2022-08-19T15:28:24;26.90;99.90
57026;DHT22;43961;52.940;6.834;2022-08-19T15:30:50;26.90;99.90
57026;DHT22;43961;52.940;6.834;2022-08-19T15:33:17;26.90;99.90
57026;DHT22;43961;52.940;6.834;2022-08-19T15:35:46;26.80;99.90
57026;DHT22;43961;52.940;6.834;2022-08-19T15:38:12;26.80;99.90
57026;DHT22;43961;52.940;6.834;2022-08-19T15:40:40;26.70;99.90
57026;DHT22;43961;52.940;6.834;2022-08-19T15:43:06;26.80;99.90
57026;DHT22;43961;52.940;6.834;2022-08-19T15:45:33;26.70;99.90
57026;DHT22;43961;52.940;6.834;2022-08-19T15:48:03;26.80;99.90